sensor_id;sensor_type;location;lat;lon;timestamp;P1;durP1;ratioP1;P2;durP2;ratioP2
72864;SDS011;61000;48.120;11.548;2024-02-28T00:01:04;26.85;;;19.15;;
72864;SDS011;61000;48.120;11.548;2024-02-28T00:03:31;27.17;;;17.13;;
72864;SDS011;61000;48.120;11.548;2024-02-28T00:05:58;27.60;;;17.40;;
72864;SDS011;61000;48.120;11.548;2024-02-28T00:08:25;28.15;;;17.85;;
72864;SDS011;61000;48.120;11.548;2024-02-28T00:10:52;28.05;;;17.83;;
72864;SDS011;61000;48.120;11.548;2024-02-28T00:13:19;30.55;;;17.75;;
72864;SDS011;61000;48.120;11.548;2024-02-28T00:15:47;26.30;;;16.40;;
72864;SDS011;61000;48.120;11.548;2024-02-28T00:18:16;26.25;;;17.38;;
72864;SDS011;61000;48.120;11.548;2024-02-28T00:20:43;27.90;;;18.27;;
72864;SDS011;61000;48.120;11.548;2024-02-28T00:23:11;35.58;;;19.48;;
72864;SDS011;61000;48.120;11.548;2024-02-28T00:25:38;28.52;;;18.05;;
72864;SDS011;61000;48.120;11.548;2024-02-28T00:28:06;27.52;;;18.02;;
72864;SDS011;61000;48.120;11.548;2024-02-28T00:30:32;28.92;;;18.30;;
72864;SDS011;61000;48.120;11.548;2024-02-28T00:32:59;28.65;;;18.30;;
72864;SDS011;61000;48.120;11.548;2024-02-28T00:35:28;30.13;;;18.40;;
72864;SDS011;61000;48.120;11.548;2024-02-28T00:37:59;28.13;;;18.70;;
72864;SDS011;61000;48.120;11.548;2024-02-28T00:40:26;29.42;;;18.73;;
72864;SDS011;61000;48.120;11.548;2024-02-28T00:42:56;26.85;;;18.15;;
72864;SDS011;61000;48.120;11.548;2024-02-28T00:45:23;30.75;;;18.67;;
72864;SDS011;61000;48.120;11.548;2024-02-28T00:47:50;28.70;;;18.08;;
72864;SDS011;61000;48.120;11.548;2024-02-28T00:50:17;26.88;;;18.52;;
72864;SDS011;61000;48.120;11.548;2024-02-28T00:52:45;28.10;;;17.75;;
72864;SDS011;61000;48.120;11.548;2024-02-28T00:55:12;30.13;;;18.33;;
72864;SDS011;61000;48.120;11.548;2024-02-28T00:57:39;32.17;;;18.98;;
72864;SDS011;61000;48.120;11.548;2024-02-28T01:00:06;29.60;;;18.40;;
72864;SDS011;61000;48.120;11.548;2024-02-28T01:02:35;29.33;;;18.58;;
72864;SDS011;61000;48.120;11.548;2024-02-28T01:05:01;32.25;;;19.60;;
72864;SDS011;61000;48.120;11.548;2024-02-28T01:07:28;29.15;;;18.75;;
72864;SDS011;61000;48.120;11.548;2024-02-28T01:09:57;29.98;;;18.40;;
72864;SDS011;61000;48.120;11.548;2024-02-28T01:12:23;32.55;;;19.38;;
72864;SDS011;61000;48.120;11.548;2024-02-28T01:14:50;30.52;;;18.30;;
72864;SDS011;61000;48.120;11.548;2024-02-28T01:17:17;28.83;;;17.95;;
72864;SDS011;61000;48.120;11.548;2024-02-28T01:19:44;32.53;;;18.88;;
72864;SDS011;61000;48.120;11.548;2024-02-28T01:22:11;28.67;;;18.13;;
72864;SDS011;61000;48.120;11.548;2024-02-28T01:24:38;26.60;;;17.27;;
72864;SDS011;61000;48.120;11.548;2024-02-28T01:27:06;26.00;;;17.67;;
72864;SDS011;61000;48.120;11.548;2024-02-28T01:29:33;24.67;;;16.08;;
72864;SDS011;61000;48.120;11.548;2024-02-28T01:32:00;24.48;;;16.27;;
72864;SDS011;61000;48.120;11.548;2024-02-28T01:34:27;24.80;;;15.88;;
72864;SDS011;61000;48.120;11.548;2024-02-28T01:36:54;26.15;;;16.85;;
72864;SDS011;61000;48.120;11.548;2024-02-28T01:39:21;27.52;;;17.75;;
72864;SDS011;61000;48.120;11.548;2024-02-28T01:41:52;24.70;;;16.30;;
72864;SDS011;61000;48.120;11.548;2024-02-28T01:44:20;29.17;;;18.10;;
72864;SDS011;61000;48.120;11.548;2024-02-28T01:46:48;29.33;;;18.10;;
72864;SDS011;61000;48.120;11.548;2024-02-28T01:49:14;23.58;;;16.58;;
72864;SDS011;61000;48.120;11.548;2024-02-28T01:51:43;27.40;;;17.05;;
72864;SDS011;61000;48.120;11.548;2024-02-28T01:54:12;24.15;;;16.30;;
72864;SDS011;61000;48.120;11.548;2024-02-28T01:56:40;25.95;;;17.00;;
72864;SDS011;61000;48.120;11.548;2024-02-28T01:59:08;26.08;;;16.63;;
72864;SDS011;61000;48.120;11.548;2024-02-28T02:01:38;25.35;;;17.00;;
72864;SDS011;61000;48.120;11.548;2024-02-28T02:04:05;28.63;;;17.52;;
72864;SDS011;61000;48.120;11.548;2024-02-28T02:06:32;25.60;;;18.10;;
72864;SDS011;61000;48.120;11.548;2024-02-28T02:08:59;24.10;;;16.20;;
72864;SDS011;61000;48.120;11.548;2024-02-28T02:11:27;28.73;;;18.10;;
72864;SDS011;61000;48.120;11.548;2024-02-28T02:13:55;27.48;;;18.10;;
72864;SDS011;61000;48.120;11.548;2024-02-28T02:16:22;27.23;;;17.77;;
72864;SDS011;61000;48.120;11.548;2024-02-28T02:18:52;28.63;;;18.35;;
72864;SDS011;61000;48.120;11.548;2024-02-28T02:21:21;30.45;;;18.60;;
72864;SDS011;61000;48.120;11.548;2024-02-28T02:23:51;28.10;;;17.50;;
72864;SDS011;61000;48.120;11.548;2024-02-28T02:26:18;31.38;;;19.38;;
72864;SDS011;61000;48.120;11.548;2024-02-28T02:28:45;32.72;;;19.38;;
72864;SDS011;61000;48.120;11.548;2024-02-28T02:31:14;31.70;;;19.52;;
72864;SDS011;61000;48.120;11.548;2024-02-28T02:33:41;35.15;;;19.85;;
72864;SDS011;61000;48.120;11.548;2024-02-28T02:36:08;34.78;;;20.75;;
72864;SDS011;61000;48.120;11.548;2024-02-28T02:38:34;31.17;;;19.58;;
72864;SDS011;61000;48.120;11.548;2024-02-28T02:41:02;32.60;;;19.02;;
72864;SDS011;61000;48.120;11.548;2024-02-28T02:43:29;29.27;;;19.30;;
72864;SDS011;61000;48.120;11.548;2024-02-28T02:45:56;32.35;;;18.95;;
72864;SDS011;61000;48.120;11.548;2024-02-28T02:48:23;30.15;;;18.55;;
72864;SDS011;61000;48.120;11.548;2024-02-28T02:50:49;32.50;;;19.42;;
72864;SDS011;61000;48.120;11.548;2024-02-28T02:53:17;30.63;;;19.48;;
72864;SDS011;61000;48.120;11.548;2024-02-28T02:55:44;30.60;;;18.75;;
72864;SDS011;61000;48.120;11.548;2024-02-28T02:58:12;29.90;;;19.60;;
72864;SDS011;61000;48.120;11.548;2024-02-28T03:00:39;31.45;;;18.98;;
72864;SDS011;61000;48.120;11.548;2024-02-28T03:03:06;34.85;;;20.25;;
72864;SDS011;61000;48.120;11.548;2024-02-28T03:05:33;33.67;;;20.30;;
72864;SDS011;61000;48.120;11.548;2024-02-28T03:08:00;35.83;;;21.73;;
72864;SDS011;61000;48.120;11.548;2024-02-28T03:10:27;32.67;;;20.70;;
72864;SDS011;61000;48.120;11.548;2024-02-28T03:12:54;38.45;;;21.45;;
72864;SDS011;61000;48.120;11.548;2024-02-28T03:15:23;37.95;;;22.95;;
72864;SDS011;61000;48.120;11.548;2024-02-28T03:17:50;37.97;;;21.67;;
72864;SDS011;61000;48.120;11.548;2024-02-28T03:20:16;35.67;;;22.63;;
72864;SDS011;61000;48.120;11.548;2024-02-28T03:22:43;40.60;;;22.52;;
72864;SDS011;61000;48.120;11.548;2024-02-28T03:25:10;33.28;;;21.05;;
72864;SDS011;61000;48.120;11.548;2024-02-28T03:27:37;36.70;;;22.48;;
72864;SDS011;61000;48.120;11.548;2024-02-28T03:30:04;38.95;;;21.60;;
72864;SDS011;61000;48.120;11.548;2024-02-28T03:32:33;35.45;;;22.58;;
72864;SDS011;61000;48.120;11.548;2024-02-28T03:35:00;37.42;;;21.77;;
72864;SDS011;61000;48.120;11.548;2024-02-28T03:37:29;40.92;;;21.48;;
72864;SDS011;61000;48.120;11.548;2024-02-28T03:39:56;42.47;;;24.00;;
72864;SDS011;61000;48.120;11.548;2024-02-28T03:42:23;42.50;;;22.77;;
72864;SDS011;61000;48.120;11.548;2024-02-28T03:44:50;47.88;;;22.10;;
72864;SDS011;61000;48.120;11.548;2024-02-28T03:47:17;37.63;;;21.08;;
72864;SDS011;61000;48.120;11.548;2024-02-28T03:49:45;42.85;;;22.55;;
72864;SDS011;61000;48.120;11.548;2024-02-28T03:52:12;40.42;;;21.80;;
72864;SDS011;61000;48.120;11.548;2024-02-28T03:54:41;38.08;;;21.90;;
72864;SDS011;61000;48.120;11.548;2024-02-28T03:57:08;37.78;;;21.95;;
72864;SDS011;61000;48.120;11.548;2024-02-28T03:59:35;37.92;;;21.52;;
72864;SDS011;61000;48.120;11.548;2024-02-28T04:02:02;38.60;;;22.20;;
72864;SDS011;61000;48.120;11.548;2024-02-28T04:04:29;42.35;;;22.27;;
72864;SDS011;61000;48.120;11.548;2024-02-28T04:06:57;36.28;;;20.63;;
72864;SDS011;61000;48.120;11.548;2024-02-28T04:09:24;38.63;;;22.35;;
72864;SDS011;61000;48.120;11.548;2024-02-28T04:11:50;39.25;;;23.10;;
72864;SDS011;61000;48.120;11.548;2024-02-28T04:14:17;41.22;;;23.10;;
72864;SDS011;61000;48.120;11.548;2024-02-28T04:16:44;38.08;;;22.48;;
72864;SDS011;61000;48.120;11.548;2024-02-28T04:19:12;39.28;;;22.00;;
72864;SDS011;61000;48.120;11.548;2024-02-28T04:21:39;39.42;;;21.98;;
72864;SDS011;61000;48.120;11.548;2024-02-28T04:24:07;37.67;;;23.27;;
72864;SDS011;61000;48.120;11.548;2024-02-28T04:26:35;41.00;;;22.77;;
72864;SDS011;61000;48.120;11.548;2024-02-28T04:29:02;40.38;;;23.90;;
72864;SDS011;61000;48.120;11.548;2024-02-28T04:31:32;40.65;;;23.88;;
72864;SDS011;61000;48.120;11.548;2024-02-28T04:33:59;40.10;;;22.05;;
72864;SDS011;61000;48.120;11.548;2024-02-28T04:36:26;35.60;;;22.05;;
72864;SDS011;61000;48.120;11.548;2024-02-28T04:38:53;43.85;;;24.00;;
72864;SDS011;61000;48.120;11.548;2024-02-28T04:41:21;38.58;;;22.33;;
72864;SDS011;61000;48.120;11.548;2024-02-28T04:43:48;38.47;;;22.45;;
72864;SDS011;61000;48.120;11.548;2024-02-28T04:46:15;41.33;;;23.38;;
72864;SDS011;61000;48.120;11.548;2024-02-28T04:48:42;46.58;;;23.20;;
72864;SDS011;61000;48.120;11.548;2024-02-28T04:51:09;44.42;;;24.63;;
72864;SDS011;61000;48.120;11.548;2024-02-28T04:53:35;41.60;;;22.70;;
72864;SDS011;61000;48.120;11.548;2024-02-28T04:56:02;41.42;;;23.27;;
72864;SDS011;61000;48.120;11.548;2024-02-28T04:58:31;43.55;;;23.05;;
72864;SDS011;61000;48.120;11.548;2024-02-28T05:00:58;40.25;;;24.02;;
72864;SDS011;61000;48.120;11.548;2024-02-28T05:03:25;47.22;;;25.20;;
72864;SDS011;61000;48.120;11.548;2024-02-28T05:05:52;46.65;;;24.75;;
72864;SDS011;61000;48.120;11.548;2024-02-28T05:08:19;43.83;;;26.35;;
72864;SDS011;61000;48.120;11.548;2024-02-28T05:10:46;44.60;;;24.00;;
72864;SDS011;61000;48.120;11.548;2024-02-28T05:13:13;45.30;;;25.80;;
72864;SDS011;61000;48.120;11.548;2024-02-28T05:15:41;43.97;;;23.35;;
72864;SDS011;61000;48.120;11.548;2024-02-28T05:18:08;41.50;;;23.95;;
72864;SDS011;61000;48.120;11.548;2024-02-28T05:20:35;44.50;;;23.80;;
72864;SDS011;61000;48.120;11.548;2024-02-28T05:23:02;41.15;;;24.02;;
72864;SDS011;61000;48.120;11.548;2024-02-28T05:25:29;42.75;;;24.25;;
72864;SDS011;61000;48.120;11.548;2024-02-28T05:27:56;44.25;;;24.35;;
72864;SDS011;61000;48.120;11.548;2024-02-28T05:30:22;46.50;;;24.95;;
72864;SDS011;61000;48.120;11.548;2024-02-28T05:32:51;49.03;;;24.52;;
72864;SDS011;61000;48.120;11.548;2024-02-28T05:35:18;41.22;;;23.70;;
72864;SDS011;61000;48.120;11.548;2024-02-28T05:37:44;48.25;;;25.30;;
72864;SDS011;61000;48.120;11.548;2024-02-28T05:40:12;51.70;;;29.83;;
72864;SDS011;61000;48.120;11.548;2024-02-28T05:42:39;46.78;;;25.75;;
72864;SDS011;61000;48.120;11.548;2024-02-28T05:45:07;48.72;;;25.15;;
72864;SDS011;61000;48.120;11.548;2024-02-28T05:47:35;42.20;;;23.50;;
72864;SDS011;61000;48.120;11.548;2024-02-28T05:50:04;44.55;;;23.85;;
72864;SDS011;61000;48.120;11.548;2024-02-28T05:52:31;47.00;;;24.70;;
72864;SDS011;61000;48.120;11.548;2024-02-28T05:54:58;43.85;;;24.30;;
72864;SDS011;61000;48.120;11.548;2024-02-28T05:57:25;43.28;;;24.88;;
72864;SDS011;61000;48.120;11.548;2024-02-28T05:59:52;45.22;;;24.58;;
72864;SDS011;61000;48.120;11.548;2024-02-28T06:02:19;43.40;;;24.83;;
72864;SDS011;61000;48.120;11.548;2024-02-28T06:04:46;42.38;;;24.08;;
72864;SDS011;61000;48.120;11.548;2024-02-28T06:07:14;44.90;;;24.25;;
72864;SDS011;61000;48.120;11.548;2024-02-28T06:09:41;39.22;;;23.65;;
72864;SDS011;61000;48.120;11.548;2024-02-28T06:12:08;43.50;;;25.00;;
72864;SDS011;61000;48.120;11.548;2024-02-28T06:14:35;45.95;;;25.20;;
72864;SDS011;61000;48.120;11.548;2024-02-28T06:17:02;50.90;;;25.65;;
72864;SDS011;61000;48.120;11.548;2024-02-28T06:19:29;41.63;;;23.42;;
72864;SDS011;61000;48.120;11.548;2024-02-28T06:21:56;44.40;;;23.33;;
72864;SDS011;61000;48.120;11.548;2024-02-28T06:24:24;38.55;;;23.42;;
72864;SDS011;61000;48.120;11.548;2024-02-28T06:26:51;42.78;;;25.70;;
72864;SDS011;61000;48.120;11.548;2024-02-28T06:29:18;44.35;;;26.00;;
72864;SDS011;61000;48.120;11.548;2024-02-28T06:31:49;44.20;;;23.55;;
72864;SDS011;61000;48.120;11.548;2024-02-28T06:34:16;45.10;;;24.17;;
72864;SDS011;61000;48.120;11.548;2024-02-28T06:36:43;43.45;;;24.27;;
72864;SDS011;61000;48.120;11.548;2024-02-28T06:39:10;42.05;;;23.05;;
72864;SDS011;61000;48.120;11.548;2024-02-28T06:41:39;50.30;;;26.10;;
72864;SDS011;61000;48.120;11.548;2024-02-28T06:44:06;46.08;;;26.52;;
72864;SDS011;61000;48.120;11.548;2024-02-28T06:46:33;44.13;;;23.52;;
72864;SDS011;61000;48.120;11.548;2024-02-28T06:49:00;43.53;;;24.10;;
72864;SDS011;61000;48.120;11.548;2024-02-28T06:51:27;43.90;;;23.85;;
72864;SDS011;61000;48.120;11.548;2024-02-28T06:53:54;46.72;;;24.52;;
72864;SDS011;61000;48.120;11.548;2024-02-28T06:56:21;49.83;;;26.05;;
72864;SDS011;61000;48.120;11.548;2024-02-28T06:58:50;53.83;;;24.92;;
72864;SDS011;61000;48.120;11.548;2024-02-28T07:01:17;48.72;;;25.98;;
72864;SDS011;61000;48.120;11.548;2024-02-28T07:03:44;50.15;;;25.17;;
72864;SDS011;61000;48.120;11.548;2024-02-28T07:06:11;53.88;;;26.90;;
72864;SDS011;61000;48.120;11.548;2024-02-28T07:08:39;47.15;;;25.20;;
72864;SDS011;61000;48.120;11.548;2024-02-28T07:11:12;55.63;;;25.17;;
72864;SDS011;61000;48.120;11.548;2024-02-28T07:13:39;45.92;;;22.70;;
72864;SDS011;61000;48.120;11.548;2024-02-28T07:16:07;40.55;;;23.23;;
72864;SDS011;61000;48.120;11.548;2024-02-28T07:18:34;47.65;;;24.85;;
72864;SDS011;61000;48.120;11.548;2024-02-28T07:21:01;48.80;;;23.95;;
72864;SDS011;61000;48.120;11.548;2024-02-28T07:23:28;51.13;;;25.63;;
72864;SDS011;61000;48.120;11.548;2024-02-28T07:25:55;49.72;;;24.90;;
72864;SDS011;61000;48.120;11.548;2024-02-28T07:28:22;57.30;;;27.02;;
72864;SDS011;61000;48.120;11.548;2024-02-28T07:30:49;50.53;;;25.63;;
72864;SDS011;61000;48.120;11.548;2024-02-28T07:33:17;52.50;;;26.00;;
72864;SDS011;61000;48.120;11.548;2024-02-28T07:35:44;66.50;;;30.48;;
72864;SDS011;61000;48.120;11.548;2024-02-28T07:38:12;66.68;;;29.75;;
72864;SDS011;61000;48.120;11.548;2024-02-28T07:40:38;62.17;;;29.33;;
72864;SDS011;61000;48.120;11.548;2024-02-28T07:43:08;52.00;;;26.10;;
72864;SDS011;61000;48.120;11.548;2024-02-28T07:45:38;61.08;;;28.40;;
72864;SDS011;61000;48.120;11.548;2024-02-28T07:48:05;51.22;;;25.35;;
72864;SDS011;61000;48.120;11.548;2024-02-28T07:50:34;59.10;;;27.55;;
72864;SDS011;61000;48.120;11.548;2024-02-28T07:53:03;55.75;;;26.35;;
72864;SDS011;61000;48.120;11.548;2024-02-28T07:55:30;60.40;;;26.40;;
72864;SDS011;61000;48.120;11.548;2024-02-28T07:57:57;61.25;;;28.08;;
72864;SDS011;61000;48.120;11.548;2024-02-28T08:00:24;49.08;;;25.73;;
72864;SDS011;61000;48.120;11.548;2024-02-28T08:02:51;50.45;;;25.77;;
72864;SDS011;61000;48.120;11.548;2024-02-28T08:05:18;56.25;;;27.23;;
72864;SDS011;61000;48.120;11.548;2024-02-28T08:07:46;54.42;;;26.55;;
72864;SDS011;61000;48.120;11.548;2024-02-28T08:10:13;53.05;;;25.67;;
72864;SDS011;61000;48.120;11.548;2024-02-28T08:12:40;55.20;;;27.35;;
72864;SDS011;61000;48.120;11.548;2024-02-28T08:15:07;53.17;;;26.63;;
72864;SDS011;61000;48.120;11.548;2024-02-28T08:17:34;51.25;;;26.60;;
72864;SDS011;61000;48.120;11.548;2024-02-28T08:20:03;53.45;;;28.42;;
72864;SDS011;61000;48.120;11.548;2024-02-28T08:22:31;58.58;;;27.38;;
72864;SDS011;61000;48.120;11.548;2024-02-28T08:24:59;54.03;;;25.85;;
72864;SDS011;61000;48.120;11.548;2024-02-28T08:27:26;51.97;;;27.58;;
72864;SDS011;61000;48.120;11.548;2024-02-28T08:29:53;50.13;;;25.38;;
72864;SDS011;61000;48.120;11.548;2024-02-28T08:32:20;51.75;;;25.48;;
72864;SDS011;61000;48.120;11.548;2024-02-28T08:34:47;50.63;;;25.88;;
72864;SDS011;61000;48.120;11.548;2024-02-28T08:37:14;55.17;;;25.63;;
72864;SDS011;61000;48.120;11.548;2024-02-28T08:39:42;56.25;;;27.15;;
72864;SDS011;61000;48.120;11.548;2024-02-28T08:42:12;55.38;;;26.27;;
72864;SDS011;61000;48.120;11.548;2024-02-28T08:44:39;55.90;;;27.95;;
72864;SDS011;61000;48.120;11.548;2024-02-28T08:47:06;54.22;;;27.85;;
72864;SDS011;61000;48.120;11.548;2024-02-28T08:49:40;59.17;;;26.80;;
72864;SDS011;61000;48.120;11.548;2024-02-28T08:52:07;64.32;;;28.50;;
72864;SDS011;61000;48.120;11.548;2024-02-28T08:54:33;59.17;;;28.02;;
72864;SDS011;61000;48.120;11.548;2024-02-28T08:57:00;55.85;;;28.40;;
72864;SDS011;61000;48.120;11.548;2024-02-28T08:59:28;52.42;;;28.05;;
72864;SDS011;61000;48.120;11.548;2024-02-28T09:01:55;54.53;;;26.90;;
72864;SDS011;61000;48.120;11.548;2024-02-28T09:04:22;55.72;;;26.83;;
72864;SDS011;61000;48.120;11.548;2024-02-28T09:06:49;61.80;;;28.45;;
72864;SDS011;61000;48.120;11.548;2024-02-28T09:09:18;55.53;;;27.83;;
72864;SDS011;61000;48.120;11.548;2024-02-28T09:11:45;52.03;;;27.15;;
72864;SDS011;61000;48.120;11.548;2024-02-28T09:14:12;58.35;;;27.92;;
72864;SDS011;61000;48.120;11.548;2024-02-28T09:16:40;55.97;;;28.77;;
72864;SDS011;61000;48.120;11.548;2024-02-28T09:19:07;59.78;;;27.88;;
72864;SDS011;61000;48.120;11.548;2024-02-28T09:21:36;55.47;;;27.25;;
72864;SDS011;61000;48.120;11.548;2024-02-28T09:24:03;55.92;;;28.80;;
72864;SDS011;61000;48.120;11.548;2024-02-28T09:26:30;62.35;;;29.38;;
72864;SDS011;61000;48.120;11.548;2024-02-28T09:28:57;55.47;;;29.45;;
72864;SDS011;61000;48.120;11.548;2024-02-28T09:31:24;57.17;;;30.30;;
72864;SDS011;61000;48.120;11.548;2024-02-28T09:33:52;58.83;;;28.05;;
72864;SDS011;61000;48.120;11.548;2024-02-28T09:36:19;68.28;;;29.55;;
72864;SDS011;61000;48.120;11.548;2024-02-28T09:38:46;53.35;;;28.65;;
72864;SDS011;61000;48.120;11.548;2024-02-28T09:41:14;63.70;;;28.13;;
72864;SDS011;61000;48.120;11.548;2024-02-28T09:43:41;57.33;;;28.48;;
72864;SDS011;61000;48.120;11.548;2024-02-28T09:46:08;56.65;;;31.05;;
72864;SDS011;61000;48.120;11.548;2024-02-28T09:48:38;57.13;;;29.75;;
72864;SDS011;61000;48.120;11.548;2024-02-28T09:51:07;53.63;;;28.35;;
72864;SDS011;61000;48.120;11.548;2024-02-28T09:53:37;55.35;;;26.65;;
72864;SDS011;61000;48.120;11.548;2024-02-28T09:56:04;53.80;;;26.20;;
72864;SDS011;61000;48.120;11.548;2024-02-28T09:58:32;60.70;;;29.40;;
72864;SDS011;61000;48.120;11.548;2024-02-28T10:01:01;52.08;;;27.67;;
72864;SDS011;61000;48.120;11.548;2024-02-28T10:03:30;52.75;;;28.38;;
72864;SDS011;61000;48.120;11.548;2024-02-28T10:05:58;59.45;;;29.88;;
72864;SDS011;61000;48.120;11.548;2024-02-28T10:08:26;57.25;;;29.38;;
72864;SDS011;61000;48.120;11.548;2024-02-28T10:10:54;51.33;;;27.63;;
72864;SDS011;61000;48.120;11.548;2024-02-28T10:13:22;55.83;;;28.38;;
72864;SDS011;61000;48.120;11.548;2024-02-28T10:15:49;52.20;;;26.83;;
72864;SDS011;61000;48.120;11.548;2024-02-28T10:18:16;48.25;;;26.73;;
72864;SDS011;61000;48.120;11.548;2024-02-28T10:20:43;48.22;;;27.13;;
72864;SDS011;61000;48.120;11.548;2024-02-28T10:23:10;55.08;;;27.42;;
72864;SDS011;61000;48.120;11.548;2024-02-28T10:25:45;50.63;;;28.13;;
72864;SDS011;61000;48.120;11.548;2024-02-28T10:28:12;51.05;;;25.88;;
72864;SDS011;61000;48.120;11.548;2024-02-28T10:30:42;53.33;;;27.98;;
72864;SDS011;61000;48.120;11.548;2024-02-28T10:33:10;53.45;;;28.13;;
72864;SDS011;61000;48.120;11.548;2024-02-28T10:35:38;48.80;;;25.77;;
72864;SDS011;61000;48.120;11.548;2024-02-28T10:38:07;49.08;;;25.88;;
72864;SDS011;61000;48.120;11.548;2024-02-28T10:40:40;58.55;;;29.38;;
72864;SDS011;61000;48.120;11.548;2024-02-28T10:43:09;55.30;;;26.67;;
72864;SDS011;61000;48.120;11.548;2024-02-28T10:45:36;50.13;;;26.52;;
72864;SDS011;61000;48.120;11.548;2024-02-28T10:48:04;46.88;;;25.13;;
72864;SDS011;61000;48.120;11.548;2024-02-28T10:50:32;48.47;;;24.15;;
72864;SDS011;61000;48.120;11.548;2024-02-28T10:53:00;43.47;;;24.20;;
72864;SDS011;61000;48.120;11.548;2024-02-28T10:55:30;46.90;;;24.58;;
72864;SDS011;61000;48.120;11.548;2024-02-28T10:58:01;43.67;;;24.15;;
72864;SDS011;61000;48.120;11.548;2024-02-28T11:00:31;44.38;;;25.40;;
72864;SDS011;61000;48.120;11.548;2024-02-28T11:02:58;43.58;;;25.15;;
72864;SDS011;61000;48.120;11.548;2024-02-28T11:05:34;49.92;;;25.33;;
72864;SDS011;61000;48.120;11.548;2024-02-28T11:08:03;50.00;;;25.48;;
72864;SDS011;61000;48.120;11.548;2024-02-28T11:10:30;44.53;;;25.23;;
72864;SDS011;61000;48.120;11.548;2024-02-28T11:12:58;51.88;;;26.73;;
72864;SDS011;61000;48.120;11.548;2024-02-28T11:15:25;51.03;;;27.05;;
72864;SDS011;61000;48.120;11.548;2024-02-28T11:17:54;46.47;;;26.33;;
72864;SDS011;61000;48.120;11.548;2024-02-28T11:20:20;46.63;;;25.80;;
72864;SDS011;61000;48.120;11.548;2024-02-28T11:22:48;43.58;;;24.17;;
72864;SDS011;61000;48.120;11.548;2024-02-28T11:25:15;45.88;;;24.77;;
72864;SDS011;61000;48.120;11.548;2024-02-28T11:27:45;46.20;;;25.45;;
72864;SDS011;61000;48.120;11.548;2024-02-28T11:30:13;43.53;;;23.70;;
72864;SDS011;61000;48.120;11.548;2024-02-28T11:32:40;49.80;;;24.50;;
72864;SDS011;61000;48.120;11.548;2024-02-28T11:35:09;47.05;;;24.88;;
72864;SDS011;61000;48.120;11.548;2024-02-28T11:37:37;49.20;;;24.45;;
72864;SDS011;61000;48.120;11.548;2024-02-28T11:40:06;46.63;;;24.42;;
72864;SDS011;61000;48.120;11.548;2024-02-28T11:42:34;48.80;;;24.45;;
72864;SDS011;61000;48.120;11.548;2024-02-28T11:45:02;47.25;;;24.90;;
72864;SDS011;61000;48.120;11.548;2024-02-28T11:47:31;47.78;;;26.13;;
72864;SDS011;61000;48.120;11.548;2024-02-28T11:50:00;49.67;;;26.73;;
72864;SDS011;61000;48.120;11.548;2024-02-28T11:52:29;48.65;;;25.85;;
72864;SDS011;61000;48.120;11.548;2024-02-28T11:54:57;53.97;;;26.08;;
72864;SDS011;61000;48.120;11.548;2024-02-28T11:57:24;52.17;;;26.65;;
72864;SDS011;61000;48.120;11.548;2024-02-28T11:59:54;45.05;;;24.73;;
72864;SDS011;61000;48.120;11.548;2024-02-28T12:02:22;47.47;;;25.40;;
72864;SDS011;61000;48.120;11.548;2024-02-28T12:04:53;53.70;;;26.67;;
72864;SDS011;61000;48.120;11.548;2024-02-28T12:07:20;47.72;;;25.73;;
72864;SDS011;61000;48.120;11.548;2024-02-28T12:09:48;46.97;;;26.70;;
72864;SDS011;61000;48.120;11.548;2024-02-28T12:12:15;51.95;;;25.50;;
72864;SDS011;61000;48.120;11.548;2024-02-28T12:14:43;48.65;;;26.35;;
72864;SDS011;61000;48.120;11.548;2024-02-28T12:17:13;52.05;;;25.50;;
72864;SDS011;61000;48.120;11.548;2024-02-28T12:19:40;52.97;;;28.58;;
72864;SDS011;61000;48.120;11.548;2024-02-28T12:22:07;54.28;;;27.48;;
72864;SDS011;61000;48.120;11.548;2024-02-28T12:24:34;58.28;;;29.13;;
72864;SDS011;61000;48.120;11.548;2024-02-28T12:27:03;51.22;;;26.65;;
72864;SDS011;61000;48.120;11.548;2024-02-28T12:29:30;50.70;;;27.10;;
72864;SDS011;61000;48.120;11.548;2024-02-28T12:31:57;52.33;;;26.50;;
72864;SDS011;61000;48.120;11.548;2024-02-28T12:34:24;50.30;;;26.05;;
72864;SDS011;61000;48.120;11.548;2024-02-28T12:36:51;51.47;;;26.20;;
72864;SDS011;61000;48.120;11.548;2024-02-28T12:39:19;53.10;;;27.13;;
72864;SDS011;61000;48.120;11.548;2024-02-28T12:41:46;51.03;;;25.60;;
72864;SDS011;61000;48.120;11.548;2024-02-28T12:44:15;49.28;;;26.20;;
72864;SDS011;61000;48.120;11.548;2024-02-28T12:46:42;55.95;;;28.15;;
72864;SDS011;61000;48.120;11.548;2024-02-28T12:49:08;49.10;;;25.55;;
72864;SDS011;61000;48.120;11.548;2024-02-28T12:51:36;48.22;;;27.17;;
72864;SDS011;61000;48.120;11.548;2024-02-28T12:54:04;48.28;;;25.38;;
72864;SDS011;61000;48.120;11.548;2024-02-28T12:56:32;52.90;;;26.02;;
72864;SDS011;61000;48.120;11.548;2024-02-28T12:58:59;51.42;;;25.67;;
72864;SDS011;61000;48.120;11.548;2024-02-28T13:01:28;47.85;;;25.33;;
72864;SDS011;61000;48.120;11.548;2024-02-28T13:03:55;51.75;;;25.55;;
72864;SDS011;61000;48.120;11.548;2024-02-28T13:06:22;48.90;;;25.88;;
72864;SDS011;61000;48.120;11.548;2024-02-28T13:08:50;46.45;;;24.45;;
72864;SDS011;61000;48.120;11.548;2024-02-28T13:11:18;47.38;;;24.40;;
72864;SDS011;61000;48.120;11.548;2024-02-28T13:13:46;48.88;;;23.35;;
72864;SDS011;61000;48.120;11.548;2024-02-28T13:16:15;42.15;;;24.35;;
72864;SDS011;61000;48.120;11.548;2024-02-28T13:18:44;47.00;;;24.80;;
72864;SDS011;61000;48.120;11.548;2024-02-28T13:21:11;44.40;;;24.55;;
72864;SDS011;61000;48.120;11.548;2024-02-28T13:23:38;41.90;;;22.80;;
72864;SDS011;61000;48.120;11.548;2024-02-28T13:26:06;43.42;;;23.95;;
72864;SDS011;61000;48.120;11.548;2024-02-28T13:28:33;41.00;;;22.08;;
72864;SDS011;61000;48.120;11.548;2024-02-28T13:31:01;42.30;;;24.38;;
72864;SDS011;61000;48.120;11.548;2024-02-28T13:33:29;41.40;;;22.70;;
72864;SDS011;61000;48.120;11.548;2024-02-28T13:35:57;46.58;;;24.58;;
72864;SDS011;61000;48.120;11.548;2024-02-28T13:38:24;41.25;;;23.25;;
72864;SDS011;61000;48.120;11.548;2024-02-28T13:40:51;44.92;;;23.50;;
72864;SDS011;61000;48.120;11.548;2024-02-28T13:43:18;46.22;;;24.45;;
72864;SDS011;61000;48.120;11.548;2024-02-28T13:45:46;50.17;;;24.92;;
72864;SDS011;61000;48.120;11.548;2024-02-28T13:48:15;43.78;;;23.05;;
72864;SDS011;61000;48.120;11.548;2024-02-28T13:50:43;44.30;;;24.30;;
72864;SDS011;61000;48.120;11.548;2024-02-28T13:53:12;40.47;;;23.52;;
72864;SDS011;61000;48.120;11.548;2024-02-28T13:55:40;43.03;;;24.75;;
72864;SDS011;61000;48.120;11.548;2024-02-28T13:58:07;47.72;;;24.08;;
72864;SDS011;61000;48.120;11.548;2024-02-28T14:00:36;44.30;;;23.52;;
72864;SDS011;61000;48.120;11.548;2024-02-28T14:03:03;43.53;;;23.73;;
72864;SDS011;61000;48.120;11.548;2024-02-28T14:05:32;43.58;;;23.17;;
72864;SDS011;61000;48.120;11.548;2024-02-28T14:07:59;43.00;;;22.83;;
72864;SDS011;61000;48.120;11.548;2024-02-28T14:10:30;47.83;;;24.17;;